Time,TemperatureF,DewpointF,PressureIn,WindDirection,WindDirectionDegrees,WindSpeedMPH,WindSpeedGustMPH,Humidity,HourlyPrecipIn,Conditions,Clouds,dailyrainin,SoftwareType,DateUTC
2013-05-21 00:01:00,74.7,65.0,29.86,SSW,202,0.0,0.0,72,0.00,,,0.00,WUHU21623XXSP,2013-05-21 04:01:00,
2013-05-21 00:06:00,74.5,64.9,29.85,ESE,112,0.0,0.0,72,0.00,,,0.00,WUHU21623XXSP,2013-05-21 04:06:00,
2013-05-21 00:11:00,74.5,64.9,29.85,SE,135,0.0,0.0,72,0.00,,,0.00,WUHU21623XXSP,2013-05-21 04:11:00,
2013-05-21 00:16:00,74.3,64.7,29.85,SSW,202,0.0,0.0,72,0.00,,,0.00,WUHU21623XXSP,2013-05-21 04:16:00,
2013-05-21 00:21:00,74.3,64.7,29.84,SE,135,0.0,0.0,72,0.00,,,0.00,WUHU21623XXSP,2013-05-21 04:21:00,
2013-05-21 00:26:00,74.1,64.5,29.83,ESE,112,0.0,0.7,72,0.00,,,0.00,WUHU21623XXSP,2013-05-21 04:26:00,
2013-05-21 00:31:00,73.9,64.4,29.84,ESE,112,0.0,0.7,72,0.00,,,0.00,WUHU21623XXSP,2013-05-21 04:31:00,
2013-05-21 00:36:00,73.9,64.8,29.84,South,180,3.4,3.4,73,0.00,,,0.00,WUHU21623XXSP,2013-05-21 04:36:00,
2013-05-21 00:41:00,73.9,64.8,29.84,SSE,157,0.0,3.4,73,0.00,,,0.00,WUHU21623XXSP,2013-05-21 04:41:00,
2013-05-21 00:46:00,73.8,64.6,29.85,ENE,67,0.0,3.4,73,0.00,,,0.00,WUHU21623XXSP,2013-05-21 04:46:00,
2013-05-21 00:51:00,73.8,64.6,29.86,West,270,1.6,1.6,73,0.00,,,0.00,WUHU21623XXSP,2013-05-21 04:51:00,
2013-05-21 00:56:00,73.6,64.8,29.86,NE,45,0.0,1.6,74,0.00,,,0.00,WUHU21623XXSP,2013-05-21 04:56:00,
2013-05-21 01:01:00,73.6,64.8,29.86,ESE,112,0.0,1.6,74,0.00,,,0.00,WUHU21623XXSP,2013-05-21 05:01:00,
2013-05-21 01:10:00,73.6,64.8,29.86,ESE,112,0.0,0.0,74,0.00,,,0.00,WUHU21623XXSP,2013-05-21 05:10:00,
2013-05-21 01:15:00,73.8,65.0,29.86,SSE,157,0.0,0.0,74,0.00,,,0.00,WUHU21623XXSP,2013-05-21 05:15:00,
2013-05-21 01:20:00,73.9,65.2,29.86,South,180,0.0,0.0,74,0.00,,,0.00,WUHU21623XXSP,2013-05-21 05:20:00,
2013-05-21 01:25:00,73.9,65.2,29.86,NE,45,0.0,0.0,74,0.00,,,0.00,WUHU21623XXSP,2013-05-21 05:25:00,
2013-05-21 01:30:00,73.9,65.5,29.85,NE,45,0.0,0.0,75,0.00,,,0.00,WUHU21623XXSP,2013-05-21 05:30:00,
2013-05-21 01:35:00,73.9,65.5,29.85,NNW,337,0.0,0.0,75,0.00,,,0.00,WUHU21623XXSP,2013-05-21 05:35:00,
2013-05-21 01:40:00,74.1,65.7,29.86,WSW,247,4.3,4.3,75,0.00,,,0.00,WUHU21623XXSP,2013-05-21 05:40:00,
2013-05-21 01:45:00,74.1,65.7,29.85,WSW,247,0.0,4.3,75,0.00,,,0.00,WUHU21623XXSP,2013-05-21 05:45:00,
2013-05-21 01:50:00,74.1,65.7,29.85,WSW,247,0.0,4.3,75,0.00,,,0.00,WUHU21623XXSP,2013-05-21 05:50:00,
2013-05-21 01:55:00,74.1,65.7,29.85,ESE,112,0.0,0.0,75,0.00,,,0.00,WUHU21623XXSP,2013-05-21 05:55:00,
2013-05-21 02:00:00,74.1,65.7,29.85,WSW,247,5.8,5.8,75,0.00,,,0.00,WUHU21623XXSP,2013-05-21 06:00:00,
2013-05-21 02:05:00,74.1,65.7,29.85,WSW,247,5.8,5.8,75,0.00,,,0.00,WUHU21623XXSP,2013-05-21 06:05:00,
2013-05-21 02:10:00,74.1,65.7,29.85,WSW,247,5.8,5.8,75,0.00,,,0.00,WUHU21623XXSP,2013-05-21 06:10:00,
2013-05-21 02:15:00,74.1,65.7,29.85,WSW,247,0.0,5.8,75,0.00,,,0.00,WUHU21623XXSP,2013-05-21 06:15:00,
2013-05-21 02:20:00,74.1,65.7,29.85,SSE,157,9.4,9.4,75,0.00,,,0.00,WUHU21623XXSP,2013-05-21 06:20:00,
2013-05-21 02:25:00,74.1,65.7,29.85,NNE,22,28.6,28.6,75,0.00,,,0.00,WUHU21623XXSP,2013-05-21 06:25:00,
2013-05-21 02:30:00,74.1,65.7,29.84,ESE,112,1.1,28.6,75,0.00,,,0.00,WUHU21623XXSP,2013-05-21 06:30:00,
2013-05-21 02:35:00,74.1,66.1,29.84,East,90,0.0,2.5,76,0.00,,,0.00,WUHU21623XXSP,2013-05-21 06:35:00,
2013-05-21 02:40:00,74.1,66.1,29.83,NE,45,0.0,2.5,76,0.00,,,0.00,WUHU21623XXSP,2013-05-21 06:40:00,
2013-05-21 02:45:00,74.1,66.1,29.83,SSW,202,0.0,0.0,76,0.00,,,0.00,WUHU21623XXSP,2013-05-21 06:45:00,
2013-05-21 02:50:00,74.1,66.1,29.83,SSE,157,3.1,3.1,76,0.00,,,0.00,WUHU21623XXSP,2013-05-21 06:50:00,
2013-05-21 02:55:00,74.1,66.1,29.83,SSW,202,3.4,3.4,76,0.00,,,0.00,WUHU21623XXSP,2013-05-21 06:55:00,
2013-05-21 03:00:00,74.1,66.1,29.82,NW,315,0.0,3.4,76,0.00,,,0.00,WUHU21623XXSP,2013-05-21 07:00:00,
2013-05-21 03:05:00,74.1,66.1,29.82,NW,315,0.0,3.4,76,0.00,,,0.00,WUHU21623XXSP,2013-05-21 07:05:00,
2013-05-21 03:10:00,74.1,66.1,29.82,NW,315,0.0,0.0,76,0.00,,,0.00,WUHU21623XXSP,2013-05-21 07:10:00,
2013-05-21 03:15:00,74.3,66.3,29.82,WSW,247,2.0,2.0,76,0.00,,,0.00,WUHU21623XXSP,2013-05-21 07:15:00,
2013-05-21 03:20:00,74.3,66.3,29.82,ESE,112,2.0,2.0,76,0.00,,,0.00,WUHU21623XXSP,2013-05-21 07:20:00,
2013-05-21 03:25:00,74.3,66.3,29.82,SE,135,0.7,2.0,76,0.00,,,0.00,WUHU21623XXSP,2013-05-21 07:25:00,
2013-05-21 03:30:00,74.1,66.1,29.82,West,270,2.0,2.0,76,0.00,,,0.00,WUHU21623XXSP,2013-05-21 07:30:00,
2013-05-21 03:35:00,74.1,66.1,29.81,East,90,0.0,2.0,76,0.00,,,0.00,WUHU21623XXSP,2013-05-21 07:35:00,
2013-05-21 03:40:00,74.1,66.1,29.81,South,180,0.0,0.0,76,0.00,,,0.00,WUHU21623XXSP,2013-05-21 07:40:00,
2013-05-21 03:45:00,74.1,66.1,29.81,SSE,157,0.9,0.9,76,0.00,,,0.00,WUHU21623XXSP,2013-05-21 07:45:00,
2013-05-21 03:50:00,74.1,66.1,29.81,SSE,157,4.3,4.3,76,0.00,,,0.00,WUHU21623XXSP,2013-05-21 07:50:00,
2013-05-21 03:55:00,74.1,66.1,29.83,South,180,10.5,10.5,76,0.00,,,0.00,WUHU21623XXSP,2013-05-21 07:55:00,
2013-05-21 04:00:00,73.9,65.5,29.85,SSE,157,3.1,10.5,75,0.00,,,0.00,WUHU21623XXSP,2013-05-21 08:00:00,
2013-05-21 04:05:00,73.9,65.5,29.85,SSE,157,3.1,10.5,75,0.00,,,0.00,WUHU21623XXSP,2013-05-21 08:05:00,
2013-05-21 04:10:00,73.9,65.5,29.85,SSE,157,3.1,3.1,75,0.00,,,0.00,WUHU21623XXSP,2013-05-21 08:10:00,
2013-05-21 04:15:00,70.5,62.5,29.86,SSE,157,3.1,3.1,76,0.00,,,0.00,WUHU21623XXSP,2013-05-21 08:15:00,
2013-05-21 04:20:00,70.0,62.4,29.86,SW,225,0.0,3.1,77,0.00,,,0.00,WUHU21623XXSP,2013-05-21 08:20:00,
2013-05-21 04:25:00,68.9,61.4,29.86,NNW,345,1.2,2.0,77,0.02,,,0.02,WUHU21623XXSP,2013-05-21 08:25:00,
2013-05-21 04:30:00,68.2,61.1,29.86,NNE,22,0.9,2.0,78,0.02,,,0.02,WUHU21623XXSP,2013-05-21 08:30:00,
2013-05-21 04:35:00,67.8,61.1,29.86,WSW,247,0.0,0.9,79,0.02,,,0.02,WUHU21623XXSP,2013-05-21 08:35:00,
2013-05-21 04:40:00,67.8,61.1,29.85,WSW,247,0.0,0.0,79,0.02,,,0.02,WUHU21623XXSP,2013-05-21 08:40:00,
2013-05-21 04:45:00,67.6,61.0,29.85,WNW,292,0.0,0.0,79,0.02,,,0.02,WUHU21623XXSP,2013-05-21 08:45:00,
2013-05-21 04:50:00,67.6,61.3,29.85,SW,225,0.0,0.0,80,0.02,,,0.02,WUHU21623XXSP,2013-05-21 08:50:00,
2013-05-21 04:55:00,67.3,61.0,29.85,SW,225,0.0,0.0,80,0.02,,,0.02,WUHU21623XXSP,2013-05-21 08:55:00,
2013-05-21 05:00:00,67.1,60.8,29.84,SSW,202,1.6,1.6,80,0.02,,,0.02,WUHU21623XXSP,2013-05-21 09:00:00,
2013-05-21 05:05:00,67.1,60.8,29.85,SSW,202,1.6,1.6,80,0.02,,,0.02,WUHU21623XXSP,2013-05-21 09:05:00,
2013-05-21 05:10:00,66.7,60.4,29.85,SW,225,0.0,1.6,80,0.02,,,0.02,WUHU21623XXSP,2013-05-21 09:10:00,
2013-05-21 05:15:00,66.7,60.8,29.84,West,270,0.0,1.6,81,0.02,,,0.02,WUHU21623XXSP,2013-05-21 09:15:00,
2013-05-21 05:20:00,66.7,60.8,29.84,SE,135,0.0,0.0,81,0.02,,,0.02,WUHU21623XXSP,2013-05-21 09:20:00,
2013-05-21 05:25:00,66.6,60.6,29.84,SE,135,0.0,0.0,81,0.00,,,0.02,WUHU21623XXSP,2013-05-21 09:25:00,
2013-05-21 05:30:00,66.4,60.7,29.84,South,180,0.0,0.0,82,0.00,,,0.02,WUHU21623XXSP,2013-05-21 09:30:00,
2013-05-21 05:35:00,66.4,60.7,29.83,ENE,67,0.0,0.0,82,0.00,,,0.02,WUHU21623XXSP,2013-05-21 09:35:00,
2013-05-21 05:40:00,66.2,60.5,29.82,SSE,157,0.0,0.0,82,0.00,,,0.02,WUHU21623XXSP,2013-05-21 09:40:00,
2013-05-21 05:45:00,66.0,60.4,29.82,SSE,157,0.0,0.0,82,0.00,,,0.02,WUHU21623XXSP,2013-05-21 09:45:00,
2013-05-21 05:50:00,66.0,60.4,29.81,SSE,157,0.0,0.0,82,0.00,,,0.02,WUHU21623XXSP,2013-05-21 09:50:00,
2013-05-21 05:55:00,66.0,60.4,29.81,SSE,157,0.0,0.0,82,0.00,,,0.02,WUHU21623XXSP,2013-05-21 09:55:00,
2013-05-21 06:00:00,65.8,60.2,29.80,SSE,157,0.4,0.4,82,0.00,,,0.02,WUHU21623XXSP,2013-05-21 10:00:00,
2013-05-21 06:05:00,65.8,60.5,29.81,South,180,0.0,0.4,83,0.00,,,0.02,WUHU21623XXSP,2013-05-21 10:05:00,
2013-05-21 06:10:00,65.8,60.5,29.81,South,180,0.0,0.4,83,0.00,,,0.02,WUHU21623XXSP,2013-05-21 10:10:00,
2013-05-21 06:15:00,65.5,60.2,29.82,SE,135,0.0,0.0,83,0.00,,,0.02,WUHU21623XXSP,2013-05-21 10:15:00,
2013-05-21 06:20:00,65.5,60.2,29.82,SE,135,0.0,0.0,83,0.00,,,0.02,WUHU21623XXSP,2013-05-21 10:20:00,
2013-05-21 06:25:00,65.3,60.0,29.83,SSE,157,0.0,0.0,83,0.00,,,0.02,WUHU21623XXSP,2013-05-21 10:25:00,
2013-05-21 06:30:00,65.3,60.0,29.84,NE,45,0.0,0.0,83,0.00,,,0.02,WUHU21623XXSP,2013-05-21 10:30:00,
2013-05-21 06:35:00,65.3,60.3,29.84,SW,225,0.0,0.0,84,0.00,,,0.02,WUHU21623XXSP,2013-05-21 10:35:00,
2013-05-21 06:40:00,65.1,60.2,29.85,WSW,247,0.0,0.0,84,0.00,,,0.02,WUHU21623XXSP,2013-05-21 10:40:00,
2013-05-21 06:45:00,65.1,60.2,29.85,SW,225,0.0,0.0,84,0.00,,,0.02,WUHU21623XXSP,2013-05-21 10:45:00,
2013-05-21 06:50:00,65.1,60.2,29.85,SW,225,0.0,0.0,84,0.00,,,0.02,WUHU21623XXSP,2013-05-21 10:50:00,
2013-05-21 06:55:00,65.1,60.2,29.85,SW,225,0.0,0.0,84,0.00,,,0.02,WUHU21623XXSP,2013-05-21 10:55:00,
2013-05-21 07:00:00,65.1,60.2,29.86,SW,225,0.0,0.0,84,0.00,,,0.02,WUHU21623XXSP,2013-05-21 11:00:00,
2013-05-21 07:05:00,64.9,60.0,29.85,South,180,0.0,0.0,84,0.00,,,0.02,WUHU21623XXSP,2013-05-21 11:05:00,
2013-05-21 07:10:00,64.9,60.0,29.86,South,180,0.0,0.0,84,0.00,,,0.02,WUHU21623XXSP,2013-05-21 11:10:00,
2013-05-21 07:15:00,65.1,60.2,29.86,SSW,202,0.0,0.0,84,0.00,,,0.02,WUHU21623XXSP,2013-05-21 11:15:00,
2013-05-21 07:20:00,65.1,60.2,29.87,WSW,247,2.2,2.2,84,0.00,,,0.02,WUHU21623XXSP,2013-05-21 11:20:00,
2013-05-21 07:25:00,65.1,60.2,29.87,ENE,67,0.0,2.2,84,0.00,,,0.02,WUHU21623XXSP,2013-05-21 11:25:00,
2013-05-21 07:30:00,65.1,60.2,29.87,WNW,292,0.0,2.2,84,0.00,,,0.02,WUHU21623XXSP,2013-05-21 11:30:00,
2013-05-21 07:35:00,65.1,60.2,29.87,SSW,202,1.1,1.1,84,0.00,,,0.02,WUHU21623XXSP,2013-05-21 11:35:00,
2013-05-21 07:40:00,65.3,60.3,29.87,SSW,202,0.0,1.1,84,0.00,,,0.02,WUHU21623XXSP,2013-05-21 11:40:00,
2013-05-21 07:45:00,65.3,60.0,29.87,ESE,112,2.9,2.9,83,0.00,,,0.02,WUHU21623XXSP,2013-05-21 11:45:00,
2013-05-21 07:50:00,65.5,60.2,29.87,SW,225,2.5,2.9,83,0.00,,,0.02,WUHU21623XXSP,2013-05-21 11:50:00,
2013-05-21 07:55:00,65.5,60.2,29.86,West,270,6.0,6.0,83,0.00,,,0.02,WUHU21623XXSP,2013-05-21 11:55:00,
2013-05-21 08:00:00,65.5,60.2,29.86,WNW,292,0.0,6.0,83,0.00,,,0.02,WUHU21623XXSP,2013-05-21 12:00:00,
2013-05-21 08:05:00,65.5,60.2,29.86,NW,315,0.0,6.0,83,0.00,,,0.02,WUHU21623XXSP,2013-05-21 12:05:00,
2013-05-21 08:10:00,66.0,60.4,29.86,SE,135,0.7,0.7,82,0.00,,,0.02,WUHU21623XXSP,2013-05-21 12:10:00,
2013-05-21 08:15:00,66.0,60.4,29.86,WSW,247,2.7,2.7,82,0.00,,,0.02,WUHU21623XXSP,2013-05-21 12:15:00,
2013-05-21 08:20:00,66.0,60.0,29.86,East,90,0.0,2.7,81,0.00,,,0.02,WUHU21623XXSP,2013-05-21 12:20:00,
2013-05-21 08:25:00,66.0,60.0,29.87,South,180,0.0,2.7,81,0.00,,,0.02,WUHU21623XXSP,2013-05-21 12:25:00,
2013-05-21 08:30:00,66.0,60.0,29.87,West,270,2.2,2.2,81,0.00,,,0.02,WUHU21623XXSP,2013-05-21 12:30:00,
2013-05-21 08:35:00,66.0,60.0,29.87,WSW,247,7.2,7.2,81,0.00,,,0.02,WUHU21623XXSP,2013-05-21 12:35:00,
2013-05-21 08:40:00,66.0,60.0,29.85,ESE,112,0.0,7.2,81,0.00,,,0.02,WUHU21623XXSP,2013-05-21 12:40:00,
2013-05-21 08:45:00,65.8,59.9,29.85,WSW,247,4.3,4.3,81,0.00,,,0.02,WUHU21623XXSP,2013-05-21 12:45:00,
2013-05-21 08:50:00,65.8,59.9,29.84,West,270,0.9,4.3,81,0.00,,,0.02,WUHU21623XXSP,2013-05-21 12:50:00,
2013-05-21 08:55:00,65.5,59.5,29.84,ENE,67,0.0,0.9,81,0.00,,,0.02,WUHU21623XXSP,2013-05-21 12:55:00,
2013-05-21 09:00:00,65.7,60.0,29.86,SSE,157,0.0,0.9,82,0.00,,,0.02,WUHU21623XXSP,2013-05-21 13:00:00,
2013-05-21 09:05:00,65.8,60.2,29.87,WNW,292,2.0,2.0,82,0.00,,,0.02,WUHU21623XXSP,2013-05-21 13:05:00,
2013-05-21 09:10:00,65.7,60.0,29.87,SSE,157,1.8,2.0,82,0.00,,,0.02,WUHU21623XXSP,2013-05-21 13:10:00,
2013-05-21 09:15:00,65.8,60.2,29.86,SSE,157,2.0,2.0,82,0.00,,,0.02,WUHU21623XXSP,2013-05-21 13:15:00,
2013-05-21 09:20:00,65.7,60.3,29.85,SSE,157,9.4,9.4,83,0.00,,,0.02,WUHU21623XXSP,2013-05-21 13:20:00,
2013-05-21 09:25:00,65.5,60.2,29.84,South,180,2.1,9.4,83,0.00,,,0.02,WUHU21623XXSP,2013-05-21 13:25:00,
2013-05-21 09:30:00,65.5,60.2,29.83,SW,225,0.0,9.4,83,0.00,,,0.02,WUHU21623XXSP,2013-05-21 13:30:00,
2013-05-21 09:35:00,65.3,60.0,29.84,NNE,22,0.0,1.8,83,0.00,,,0.02,WUHU21623XXSP,2013-05-21 13:35:00,
2013-05-21 09:40:00,65.5,60.2,29.84,SE,135,0.0,0.0,83,0.00,,,0.02,WUHU21623XXSP,2013-05-21 13:40:00,
2013-05-21 09:45:00,65.5,60.5,29.84,ESE,112,0.0,0.0,84,0.00,,,0.02,WUHU21623XXSP,2013-05-21 13:45:00,
2013-05-21 09:50:00,65.8,60.8,29.84,SSE,157,1.3,1.3,84,0.00,,,0.02,WUHU21623XXSP,2013-05-21 13:50:00,
2013-05-21 09:55:00,65.8,60.8,29.84,SSE,157,1.3,1.3,84,0.00,,,0.02,WUHU21623XXSP,2013-05-21 13:55:00,
2013-05-21 10:00:00,66.0,61.0,29.84,SE,135,0.0,1.3,84,0.00,,,0.02,WUHU21623XXSP,2013-05-21 14:00:00,
2013-05-21 10:05:00,66.4,61.4,29.84,SSE,157,6.7,6.7,84,0.00,,,0.02,WUHU21623XXSP,2013-05-21 14:05:00,
2013-05-21 10:10:00,66.6,61.6,29.84,SW,225,0.0,6.7,84,0.00,,,0.02,WUHU21623XXSP,2013-05-21 14:10:00,
2013-05-21 10:15:00,67.3,62.3,29.84,SE,135,0.0,0.0,84,0.00,,,0.02,WUHU21623XXSP,2013-05-21 14:15:00,
2013-05-21 10:20:00,67.8,62.5,29.84,South,180,0.0,0.0,83,0.00,,,0.02,WUHU21623XXSP,2013-05-21 14:20:00,
2013-05-21 10:25:00,68.5,63.2,29.84,NNE,22,0.0,0.0,83,0.00,,,0.02,WUHU21623XXSP,2013-05-21 14:25:00,
2013-05-21 10:30:00,69.1,63.3,29.84,ENE,67,6.9,6.9,82,0.00,,,0.02,WUHU21623XXSP,2013-05-21 14:30:00,
2013-05-21 10:35:00,69.3,63.5,29.85,SE,135,6.9,6.9,82,0.00,,,0.02,WUHU21623XXSP,2013-05-21 14:35:00,
2013-05-21 10:40:00,69.6,63.2,29.85,SW,225,3.6,6.9,80,0.00,,,0.02,WUHU21623XXSP,2013-05-21 14:40:00,
2013-05-21 10:45:00,70.0,63.5,29.85,North,0,3.1,3.6,80,0.00,,,0.02,WUHU21623XXSP,2013-05-21 14:45:00,
2013-05-21 10:50:00,70.3,63.5,29.85,SSW,202,12.8,12.8,79,0.00,,,0.02,WUHU21623XXSP,2013-05-21 14:50:00,
2013-05-21 10:55:00,70.5,63.3,29.85,South,182,1.7,12.8,78,0.00,,,0.02,WUHU21623XXSP,2013-05-21 14:55:00,
2013-05-21 11:00:00,70.9,63.8,29.85,West,270,1.1,12.8,78,0.00,,,0.02,WUHU21623XXSP,2013-05-21 15:00:00,
2013-05-21 11:05:00,71.1,63.6,29.85,SSW,202,8.5,8.5,77,0.00,,,0.02,WUHU21623XXSP,2013-05-21 15:05:00,
2013-05-21 11:10:00,71.2,63.4,29.84,SSE,158,2.5,8.5,76,0.00,,,0.02,WUHU21623XXSP,2013-05-21 15:10:00,
2013-05-21 11:15:00,70.9,63.1,29.83,WNW,292,0.0,6.0,76,0.00,,,0.02,WUHU21623XXSP,2013-05-21 15:15:00,
2013-05-21 11:20:00,70.8,62.6,29.83,WSW,247,0.0,2.0,75,0.00,,,0.02,WUHU21623XXSP,2013-05-21 15:20:00,
2013-05-21 11:25:00,70.3,62.1,29.84,SSW,202,6.7,6.7,75,0.00,,,0.02,WUHU21623XXSP,2013-05-21 15:25:00,
2013-05-21 11:30:00,70.0,61.8,29.84,SSW,202,2.9,6.7,75,0.00,,,0.02,WUHU21623XXSP,2013-05-21 15:30:00,
2013-05-21 11:35:00,69.7,61.2,29.84,WNW,292,0.0,4.0,74,0.00,,,0.02,WUHU21623XXSP,2013-05-21 15:35:00,
2013-05-21 11:40:00,69.4,60.9,29.84,West,270,3.7,5.8,74,0.00,,,0.02,WUHU21623XXSP,2013-05-21 15:40:00,
2013-05-21 11:45:00,69.4,60.9,29.84,West,270,7.6,7.6,74,0.00,,,0.02,WUHU21623XXSP,2013-05-21 15:45:00,
2013-05-21 11:50:00,69.3,60.8,29.84,West,279,6.8,7.6,74,0.00,,,0.02,WUHU21623XXSP,2013-05-21 15:50:00,
2013-05-21 11:55:00,69.8,61.2,29.84,WSW,247,2.5,7.6,74,0.00,,,0.02,WUHU21623XXSP,2013-05-21 15:55:00,
2013-05-21 12:00:00,70.3,61.4,29.84,WNW,292,0.9,5.8,73,0.00,,,0.02,WUHU21623XXSP,2013-05-21 16:00:00,
2013-05-21 12:05:00,70.3,61.4,29.84,SW,224,2.0,5.8,73,0.00,,,0.02,WUHU21623XXSP,2013-05-21 16:05:00,
2013-05-21 12:10:00,70.8,61.1,29.84,West,270,9.4,9.4,71,0.00,,,0.02,WUHU21623XXSP,2013-05-21 16:10:00,
2013-05-21 12:15:00,71.1,61.0,29.84,West,270,5.6,9.4,70,0.00,,,0.02,WUHU21623XXSP,2013-05-21 16:15:00,
2013-05-21 12:20:00,71.1,61.0,29.84,SE,135,3.4,9.4,70,0.00,,,0.02,WUHU21623XXSP,2013-05-21 16:20:00,
2013-05-21 12:25:00,71.2,60.7,29.84,WSW,247,7.6,7.6,69,0.00,,,0.02,WUHU21623XXSP,2013-05-21 16:25:00,
2013-05-21 12:30:00,71.6,61.1,29.84,South,180,5.1,7.6,69,0.00,,,0.02,WUHU21623XXSP,2013-05-21 16:30:00,
2013-05-21 12:35:00,71.8,60.9,29.84,East,90,2.2,7.6,68,0.00,,,0.02,WUHU21623XXSP,2013-05-21 16:35:00,
2013-05-21 12:40:00,72.0,60.3,29.83,SSW,202,3.8,5.1,66,0.00,,,0.02,WUHU21623XXSP,2013-05-21 16:40:00,
2013-05-21 12:45:00,72.1,59.9,29.83,SE,135,3.1,3.8,65,0.00,,,0.02,WUHU21623XXSP,2013-05-21 16:45:00,
2013-05-21 12:50:00,72.4,60.1,29.83,West,270,7.4,7.4,65,0.00,,,0.02,WUHU21623XXSP,2013-05-21 16:50:00,
2013-05-21 12:55:00,72.4,59.7,29.83,West,270,6.9,7.4,64,0.00,,,0.02,WUHU21623XXSP,2013-05-21 16:55:00,
2013-05-21 13:00:00,72.5,59.4,29.83,SW,225,6.7,6.9,63,0.00,,,0.02,WUHU21623XXSP,2013-05-21 17:00:00,
2013-05-21 13:05:00,72.8,59.7,29.82,SW,233,3.8,6.9,63,0.00,,,0.02,WUHU21623XXSP,2013-05-21 17:05:00,
2013-05-21 13:09:00,72.7,59.6,29.82,SSW,202,6.5,6.7,63,0.00,,,0.02,WUHU21623XXSP,2013-05-21 17:09:00,
2013-05-21 13:15:00,72.8,59.3,29.82,NW,315,3.8,6.5,62,0.00,,,0.02,WUHU21623XXSP,2013-05-21 17:15:00,
2013-05-21 13:19:00,72.9,58.9,29.82,SSE,157,0.9,6.5,61,0.00,,,0.02,WUHU21623XXSP,2013-05-21 17:19:00,
2013-05-21 13:24:00,72.8,58.8,29.82,WSW,247,0.0,3.8,61,0.00,,,0.02,WUHU21623XXSP,2013-05-21 17:24:00,
2013-05-21 13:29:00,73.1,58.1,29.82,WSW,247,6.3,6.3,59,0.00,,,0.02,WUHU21623XXSP,2013-05-21 17:29:00,
2013-05-21 13:34:00,73.1,58.6,29.81,SW,225,6.3,6.3,60,0.00,,,0.02,WUHU21623XXSP,2013-05-21 17:34:00,
2013-05-21 13:39:00,73.2,58.2,29.81,ENE,67,3.4,6.3,59,0.00,,,0.02,WUHU21623XXSP,2013-05-21 17:39:00,
2013-05-21 13:44:00,73.5,58.4,29.81,West,270,1.3,6.3,59,0.00,,,0.02,WUHU21623XXSP,2013-05-21 17:44:00,
2013-05-21 13:49:00,73.4,57.9,29.81,WNW,292,2.0,5.8,58,0.00,,,0.02,WUHU21623XXSP,2013-05-21 17:49:00,
2013-05-21 13:54:00,73.6,57.6,29.81,South,180,4.0,5.8,57,0.00,,,0.02,WUHU21623XXSP,2013-05-21 17:54:00,
2013-05-21 13:59:00,74.0,58.0,29.80,West,270,2.0,4.0,57,0.00,,,0.02,WUHU21623XXSP,2013-05-21 17:59:00,
2013-05-21 14:04:00,74.1,57.6,29.80,NW,315,3.1,4.0,56,0.00,,,0.02,WUHU21623XXSP,2013-05-21 18:04:00,
2013-05-21 14:09:00,74.3,57.8,29.80,NW,315,3.1,3.1,56,0.00,,,0.02,WUHU21623XXSP,2013-05-21 18:09:00,
2013-05-21 14:14:00,74.6,58.0,29.80,SE,135,0.7,5.6,56,0.00,,,0.02,WUHU21623XXSP,2013-05-21 18:14:00,
2013-05-21 14:19:00,74.8,58.2,29.80,SSE,157,0.9,5.6,56,0.00,,,0.02,WUHU21623XXSP,2013-05-21 18:19:00,
2013-05-21 14:24:00,74.9,57.8,29.80,SW,229,2.1,3.8,55,0.00,,,0.02,WUHU21623XXSP,2013-05-21 18:24:00,
2013-05-21 14:29:00,75.2,58.1,29.80,ESE,112,4.5,4.5,55,0.00,,,0.02,WUHU21623XXSP,2013-05-21 18:29:00,
2013-05-21 14:34:00,75.3,58.2,29.80,NE,43,2.6,4.5,55,0.00,,,0.02,WUHU21623XXSP,2013-05-21 18:34:00,
2013-05-21 14:39:00,75.4,57.8,29.81,NW,315,4.5,4.5,54,0.00,,,0.02,WUHU21623XXSP,2013-05-21 18:39:00,
2013-05-21 14:44:00,75.7,58.6,29.81,NNW,337,3.8,4.9,55,0.00,,,0.02,WUHU21623XXSP,2013-05-21 18:44:00,
2013-05-21 14:49:00,75.9,58.7,29.80,WNW,292,7.6,7.6,55,0.00,,,0.02,WUHU21623XXSP,2013-05-21 18:49:00,
2013-05-21 14:54:00,76.2,58.5,29.80,SW,225,6.9,7.6,54,0.00,,,0.02,WUHU21623XXSP,2013-05-21 18:54:00,
2013-05-21 14:59:00,76.5,59.3,29.80,West,270,6.3,7.6,55,0.00,,,0.02,WUHU21623XXSP,2013-05-21 18:59:00,
2013-05-21 15:04:00,76.7,58.4,29.81,North,0,0.0,6.7,53,0.00,,,0.02,WUHU21623XXSP,2013-05-21 19:04:00,
2013-05-21 15:09:00,76.9,59.1,29.81,WNW,292,5.4,5.4,54,0.00,,,0.02,WUHU21623XXSP,2013-05-21 19:09:00,
2013-05-21 15:14:00,77.2,59.5,29.81,West,270,4.3,5.4,54,0.00,,,0.02,WUHU21623XXSP,2013-05-21 19:14:00,
2013-05-21 15:19:00,77.4,59.6,29.81,SW,225,6.9,6.9,54,0.00,,,0.02,WUHU21623XXSP,2013-05-21 19:19:00,
2013-05-21 15:24:00,77.7,59.4,29.81,WSW,247,6.7,6.9,53,0.00,,,0.02,WUHU21623XXSP,2013-05-21 19:24:00,
2013-05-21 15:29:00,78.1,59.8,29.80,ENE,67,1.1,6.9,53,0.00,,,0.02,WUHU21623XXSP,2013-05-21 19:29:00,
2013-05-21 15:34:00,78.4,60.0,29.81,NNE,22,2.9,6.7,53,0.00,,,0.02,WUHU21623XXSP,2013-05-21 19:34:00,
2013-05-21 15:39:00,78.6,60.2,29.81,NNW,337,3.1,3.1,53,0.00,,,0.02,WUHU21623XXSP,2013-05-21 19:39:00,
2013-05-21 15:44:00,79.2,60.8,29.81,SSE,157,0.9,3.1,53,0.00,,,0.02,WUHU21623XXSP,2013-05-21 19:44:00,
2013-05-21 15:49:00,79.5,61.0,29.81,SSW,192,4.2,5.8,53,0.00,,,0.02,WUHU21623XXSP,2013-05-21 19:49:00,
2013-05-21 15:54:00,79.9,60.8,29.80,West,270,2.7,5.8,52,0.00,,,0.02,WUHU21623XXSP,2013-05-21 19:54:00,
2013-05-21 15:59:00,80.3,61.2,29.80,NW,315,1.8,2.7,52,0.00,,,0.02,WUHU21623XXSP,2013-05-21 19:59:00,
2013-05-21 16:04:00,80.6,61.5,29.80,SE,135,2.7,2.7,52,0.00,,,0.02,WUHU21623XXSP,2013-05-21 20:04:00,
2013-05-21 16:09:00,81.0,61.3,29.80,SSE,157,0.7,2.7,51,0.00,,,0.02,WUHU21623XXSP,2013-05-21 20:09:00,
2013-05-21 16:14:00,81.3,61.0,29.80,WNW,292,4.9,5.1,50,0.00,,,0.02,WUHU21623XXSP,2013-05-21 20:14:00,
2013-05-21 16:19:00,81.6,61.3,29.80,SW,225,6.0,6.0,50,0.00,,,0.02,WUHU21623XXSP,2013-05-21 20:19:00,
2013-05-21 16:24:00,82.1,61.7,29.79,SW,225,6.0,6.0,50,0.00,,,0.02,WUHU21623XXSP,2013-05-21 20:24:00,
2013-05-21 16:29:00,82.4,62.0,29.79,NNW,337,0.0,6.0,50,0.00,,,0.02,WUHU21623XXSP,2013-05-21 20:29:00,
2013-05-21 16:34:00,82.5,62.1,29.79,NNW,337,0.0,6.0,50,0.00,,,0.02,WUHU21623XXSP,2013-05-21 20:34:00,
2013-05-21 16:39:00,83.0,62.5,29.79,WSW,247,4.7,4.7,50,0.00,,,0.02,WUHU21623XXSP,2013-05-21 20:39:00,
2013-05-21 16:44:00,83.1,62.6,29.79,WNW,292,2.5,4.7,50,0.00,,,0.02,WUHU21623XXSP,2013-05-21 20:44:00,
2013-05-21 16:49:00,83.2,62.7,29.79,SW,225,0.0,4.7,50,0.00,,,0.02,WUHU21623XXSP,2013-05-21 20:49:00,
2013-05-21 16:54:00,83.7,62.6,29.79,East,90,0.0,0.0,49,0.00,,,0.02,WUHU21623XXSP,2013-05-21 20:54:00,
2013-05-21 16:59:00,84.0,62.9,29.79,West,270,4.5,4.5,49,0.00,,,0.02,WUHU21623XXSP,2013-05-21 20:59:00,
2013-05-21 17:04:00,84.0,63.5,29.79,SW,225,10.7,10.7,50,0.00,,,0.02,WUHU21623XXSP,2013-05-21 21:04:00,
2013-05-21 17:09:00,84.0,62.2,29.79,WSW,241,2.9,10.7,48,0.00,,,0.02,WUHU21623XXSP,2013-05-21 21:09:00,
2013-05-21 17:14:00,83.8,62.1,29.79,SSW,202,5.6,10.7,48,0.00,,,0.02,WUHU21623XXSP,2013-05-21 21:14:00,
2013-05-21 17:19:00,83.5,61.7,29.79,SE,135,2.0,5.6,48,0.00,,,0.02,WUHU21623XXSP,2013-05-21 21:19:00,
2013-05-21 17:24:00,83.5,61.7,29.78,SSE,157,6.5,6.5,48,0.00,,,0.02,WUHU21623XXSP,2013-05-21 21:24:00,
2013-05-21 17:29:00,83.5,61.7,29.79,West,270,0.0,6.5,48,0.00,,,0.02,WUHU21623XXSP,2013-05-21 21:29:00,
2013-05-21 17:34:00,83.3,62.2,29.79,NNW,337,2.2,6.5,49,0.00,,,0.02,WUHU21623XXSP,2013-05-21 21:34:00,
2013-05-21 17:39:00,83.5,62.3,29.78,SW,225,2.7,2.7,49,0.00,,,0.02,WUHU21623XXSP,2013-05-21 21:39:00,
2013-05-21 17:44:00,83.3,62.2,29.78,SW,225,2.7,6.9,49,0.00,,,0.02,WUHU21623XXSP,2013-05-21 21:44:00,
2013-05-21 17:49:00,83.5,62.3,29.78,SSE,157,0.0,6.9,49,0.00,,,0.02,WUHU21623XXSP,2013-05-21 21:49:00,
2013-05-21 17:54:00,83.5,62.3,29.78,South,180,1.8,6.9,49,0.00,,,0.02,WUHU21623XXSP,2013-05-21 21:54:00,
2013-05-21 17:59:00,83.3,62.2,29.78,West,270,4.9,4.9,49,0.00,,,0.02,WUHU21623XXSP,2013-05-21 21:59:00,
2013-05-21 18:04:00,83.3,62.8,29.77,NNW,337,2.2,4.9,50,0.00,,,0.02,WUHU21623XXSP,2013-05-21 22:04:00,
2013-05-21 18:09:00,83.3,62.8,29.77,SSW,202,2.7,5.1,50,0.00,,,0.02,WUHU21623XXSP,2013-05-21 22:09:00,
2013-05-21 18:14:00,83.5,63.0,29.77,WSW,248,3.9,5.1,50,0.00,,,0.02,WUHU21623XXSP,2013-05-21 22:14:00,
2013-05-21 18:19:00,83.3,62.8,29.78,WNW,286,5.4,7.2,50,0.00,,,0.02,WUHU21623XXSP,2013-05-21 22:19:00,
2013-05-21 18:24:00,83.1,62.6,29.78,WSW,247,3.1,7.2,50,0.00,,,0.02,WUHU21623XXSP,2013-05-21 22:24:00,
2013-05-21 18:29:00,83.1,63.1,29.78,NW,315,3.1,3.1,51,0.00,,,0.02,WUHU21623XXSP,2013-05-21 22:29:00,
2013-05-21 18:34:00,82.9,63.5,29.77,ESE,112,0.7,3.1,52,0.00,,,0.02,WUHU21623XXSP,2013-05-21 22:34:00,
2013-05-21 18:39:00,82.9,63.5,29.77,WNW,292,5.8,5.8,52,0.00,,,0.02,WUHU21623XXSP,2013-05-21 22:39:00,
2013-05-21 18:44:00,82.2,63.3,29.77,NNE,22,2.5,5.8,53,0.00,,,0.02,WUHU21623XXSP,2013-05-21 22:44:00,
2013-05-21 18:49:00,82.0,63.1,29.77,SSW,202,0.0,5.8,53,0.00,,,0.02,WUHU21623XXSP,2013-05-21 22:49:00,
2013-05-21 18:54:00,82.0,63.6,29.77,SSW,202,0.0,2.5,54,0.00,,,0.02,WUHU21623XXSP,2013-05-21 22:54:00,
2013-05-21 18:59:00,81.7,63.3,29.77,WSW,247,4.7,4.7,54,0.00,,,0.02,WUHU21623XXSP,2013-05-21 22:59:00,
2013-05-21 19:04:00,81.5,63.2,29.77,SW,225,4.9,4.9,54,0.00,,,0.02,WUHU21623XXSP,2013-05-21 23:04:00,
2013-05-21 19:09:00,81.5,63.2,29.77,SW,225,4.9,4.9,54,0.00,,,0.02,WUHU21623XXSP,2013-05-21 23:09:00,
2013-05-21 19:14:00,81.1,62.8,29.77,SW,225,2.2,4.9,54,0.00,,,0.02,WUHU21623XXSP,2013-05-21 23:14:00,
2013-05-21 19:19:00,81.1,63.4,29.77,NW,315,6.3,6.3,55,0.00,,,0.02,WUHU21623XXSP,2013-05-21 23:19:00,
2013-05-21 19:24:00,81.0,63.2,29.77,NW,318,1.3,6.3,55,0.00,,,0.02,WUHU21623XXSP,2013-05-21 23:24:00,
2013-05-21 19:29:00,80.8,63.0,29.77,SE,135,0.0,6.3,55,0.00,,,0.02,WUHU21623XXSP,2013-05-21 23:29:00,
2013-05-21 19:34:00,80.8,63.0,29.77,SSW,202,1.8,1.8,55,0.00,,,0.02,WUHU21623XXSP,2013-05-21 23:34:00,
2013-05-21 19:39:00,80.4,63.2,29.77,WSW,247,4.0,4.0,56,0.00,,,0.02,WUHU21623XXSP,2013-05-21 23:39:00,
2013-05-21 19:44:00,80.4,63.2,29.77,WSW,247,4.5,4.5,56,0.00,,,0.02,WUHU21623XXSP,2013-05-21 23:44:00,
2013-05-21 19:49:00,80.4,63.2,29.77,WNW,292,0.7,4.5,56,0.00,,,0.02,WUHU21623XXSP,2013-05-21 23:49:00,
2013-05-21 19:54:00,80.2,63.1,29.77,SSW,202,4.3,4.5,56,0.00,,,0.02,WUHU21623XXSP,2013-05-21 23:54:00,
2013-05-21 19:59:00,80.1,63.4,29.77,WNW,292,0.0,4.3,57,0.00,,,0.02,WUHU21623XXSP,2013-05-21 23:59:00,
2013-05-21 20:04:00,80.1,63.4,29.77,ENE,67,0.9,4.3,57,0.00,,,0.02,WUHU21623XXSP,2013-05-22 00:04:00,
2013-05-21 20:09:00,79.9,63.3,29.77,SW,225,2.5,2.5,57,0.00,,,0.02,WUHU21623XXSP,2013-05-22 00:09:00,
2013-05-21 20:14:00,79.7,63.1,29.77,WNW,292,0.0,5.1,57,0.00,,,0.02,WUHU21623XXSP,2013-05-22 00:14:00,
2013-05-21 20:19:00,79.5,63.5,29.76,SE,135,0.0,5.1,58,0.00,,,0.02,WUHU21623XXSP,2013-05-22 00:19:00,
2013-05-21 20:24:00,79.3,63.3,29.76,WNW,292,0.0,0.0,58,0.00,,,0.02,WUHU21623XXSP,2013-05-22 00:24:00,
2013-05-21 20:29:00,79.3,63.3,29.76,SW,225,0.0,5.4,58,0.00,,,0.02,WUHU21623XXSP,2013-05-22 00:29:00,
2013-05-21 20:34:00,79.2,63.1,29.76,SW,225,0.0,5.4,58,0.00,,,0.02,WUHU21623XXSP,2013-05-22 00:34:00,
2013-05-21 20:39:00,79.0,63.0,29.76,NNW,337,4.3,4.3,58,0.00,,,0.02,WUHU21623XXSP,2013-05-22 00:39:00,
2013-05-21 20:44:00,78.6,62.6,29.77,West,270,0.0,4.3,58,0.00,,,0.02,WUHU21623XXSP,2013-05-22 00:44:00,
2013-05-21 20:49:00,78.6,62.6,29.77,South,180,0.0,0.0,58,0.00,,,0.02,WUHU21623XXSP,2013-05-22 00:49:00,
2013-05-21 20:54:00,78.4,62.5,29.77,SW,225,0.0,0.0,58,0.00,,,0.02,WUHU21623XXSP,2013-05-22 00:54:00,
2013-05-21 20:59:00,78.1,62.1,29.77,SSW,202,0.0,0.7,58,0.00,,,0.02,WUHU21623XXSP,2013-05-22 00:59:00,
2013-05-21 21:04:00,77.9,61.9,29.78,WSW,247,0.0,0.7,58,0.00,,,0.02,WUHU21623XXSP,2013-05-22 01:04:00,
2013-05-21 21:09:00,77.7,62.3,29.77,SE,135,0.0,0.0,59,0.00,,,0.02,WUHU21623XXSP,2013-05-22 01:09:00,
2013-05-21 21:14:00,77.4,62.1,29.77,SW,225,0.0,0.0,60,0.00,,,0.02,WUHU21623XXSP,2013-05-22 01:14:00,
2013-05-21 21:19:00,77.2,62.7,29.77,WSW,247,0.0,0.0,61,0.00,,,0.02,WUHU21623XXSP,2013-05-22 01:19:00,
2013-05-21 21:24:00,76.8,62.3,29.78,NE,45,0.0,0.0,61,0.00,,,0.02,WUHU21623XXSP,2013-05-22 01:24:00,
2013-05-21 21:29:00,76.8,62.3,29.78,ESE,112,0.0,0.0,61,0.00,,,0.02,WUHU21623XXSP,2013-05-22 01:29:00,
2013-05-21 21:34:00,76.5,62.0,29.78,West,270,0.0,0.0,61,0.00,,,0.02,WUHU21623XXSP,2013-05-22 01:34:00,
2013-05-21 21:39:00,76.3,62.3,29.78,SE,135,0.0,0.0,62,0.00,,,0.02,WUHU21623XXSP,2013-05-22 01:39:00,
2013-05-21 21:44:00,76.3,62.3,29.78,West,270,0.0,0.0,62,0.00,,,0.02,WUHU21623XXSP,2013-05-22 01:44:00,
2013-05-21 21:49:00,75.9,62.0,29.78,SE,135,0.0,0.0,62,0.00,,,0.02,WUHU21623XXSP,2013-05-22 01:49:00,
2013-05-21 21:54:00,75.7,61.8,29.78,SSE,157,0.0,0.0,62,0.00,,,0.02,WUHU21623XXSP,2013-05-22 01:54:00,
2013-05-21 21:59:00,75.6,61.6,29.79,SW,225,0.0,0.0,62,0.00,,,0.02,WUHU21623XXSP,2013-05-22 01:59:00,
2013-05-21 22:04:00,75.6,61.6,29.78,SW,225,0.0,0.0,62,0.00,,,0.02,WUHU21623XXSP,2013-05-22 02:04:00,
2013-05-21 22:09:00,75.4,61.9,29.79,East,90,1.6,1.6,63,0.00,,,0.02,WUHU21623XXSP,2013-05-22 02:09:00,
2013-05-21 22:14:00,75.2,61.7,29.79,SW,225,0.0,1.6,63,0.00,,,0.02,WUHU21623XXSP,2013-05-22 02:14:00,
2013-05-21 22:19:00,75.0,61.6,29.79,West,270,4.0,4.0,63,0.00,,,0.02,WUHU21623XXSP,2013-05-22 02:19:00,
2013-05-21 22:24:00,75.0,61.6,29.80,West,270,0.0,4.0,63,0.00,,,0.02,WUHU21623XXSP,2013-05-22 02:24:00,
2013-05-21 22:29:00,75.0,61.6,29.80,WSW,247,0.0,0.0,63,0.00,,,0.02,WUHU21623XXSP,2013-05-22 02:29:00,
2013-05-21 22:34:00,74.8,61.4,29.80,SW,225,0.0,0.0,63,0.00,,,0.02,WUHU21623XXSP,2013-05-22 02:34:00,
2013-05-21 22:39:00,74.8,61.8,29.80,WSW,247,0.0,0.0,64,0.00,,,0.02,WUHU21623XXSP,2013-05-22 02:39:00,
2013-05-21 22:44:00,74.5,61.5,29.81,South,180,0.0,0.0,64,0.00,,,0.02,WUHU21623XXSP,2013-05-22 02:44:00,
2013-05-21 22:49:00,74.5,61.5,29.81,West,270,0.0,0.0,64,0.00,,,0.02,WUHU21623XXSP,2013-05-22 02:49:00,
2013-05-21 22:54:00,74.3,61.7,29.81,South,180,0.0,0.0,65,0.00,,,0.02,WUHU21623XXSP,2013-05-22 02:54:00,
2013-05-21 22:59:00,74.1,61.6,29.80,West,270,0.0,0.0,65,0.00,,,0.02,WUHU21623XXSP,2013-05-22 02:59:00,
2013-05-21 23:04:00,74.1,61.6,29.80,SW,225,0.0,0.0,65,0.00,,,0.02,WUHU21623XXSP,2013-05-22 03:04:00,
2013-05-21 23:09:00,73.9,61.4,29.80,SSE,157,0.0,0.0,65,0.00,,,0.02,WUHU21623XXSP,2013-05-22 03:09:00,
2013-05-21 23:14:00,73.9,61.8,29.80,SW,225,0.0,0.0,66,0.00,,,0.02,WUHU21623XXSP,2013-05-22 03:14:00,
2013-05-21 23:19:00,73.8,61.7,29.80,SSW,202,0.0,0.0,66,0.00,,,0.02,WUHU21623XXSP,2013-05-22 03:19:00,
2013-05-21 23:24:00,73.6,61.5,29.81,SSW,202,0.0,0.0,66,0.00,,,0.02,WUHU21623XXSP,2013-05-22 03:24:00,
2013-05-21 23:29:00,73.2,61.6,29.81,SSE,157,0.0,0.0,67,0.00,,,0.02,WUHU21623XXSP,2013-05-22 03:29:00,
2013-05-21 23:34:00,73.0,61.4,29.81,SW,225,1.8,1.8,67,0.00,,,0.02,WUHU21623XXSP,2013-05-22 03:34:00,
2013-05-21 23:39:00,72.9,61.7,29.81,SW,225,1.8,1.8,68,0.00,,,0.02,WUHU21623XXSP,2013-05-22 03:39:00,
2013-05-21 23:44:00,72.7,62.0,29.80,South,180,1.6,1.8,69,0.00,,,0.02,WUHU21623XXSP,2013-05-22 03:44:00,
2013-05-21 23:49:00,72.7,62.0,29.80,NW,315,0.0,1.6,69,0.00,,,0.02,WUHU21623XXSP,2013-05-22 03:49:00,
2013-05-21 23:54:00,72.5,61.8,29.80,SE,135,0.0,1.6,69,0.00,,,0.02,WUHU21623XXSP,2013-05-22 03:54:00,
2013-05-21 23:59:00,72.3,61.6,29.79,SE,135,0.0,0.0,69,0.00,,,0.02,WUHU21623XXSP,2013-05-22 03:59:00,